Time;durP1;ratioP1;P1;durP2;ratioP2;P2;SDS_P1;SDS_P2;PMS_P1;PMS_P2;Temp;Humidity;BMP_temperature;BMP_pressure;BME280_temperature;BME280_humidity;BME280_pressure;Samples;Min_cycle;Max_cycle;Signal;HPM_P1;HPM_P2
2021/12/15 00:02:13;;;;;;;11.18;5.88;;;9.50;94.30;;;;;;4847620;29;20065;-82
2021/12/15 00:04:39;;;;;;;;;;;9.50;94.30;;;;;;4924842;29;20047;-80
2021/12/15 00:07:21;;;;;;;12.18;5.82;;;9.60;94.40;;;;;;5053404;28;19912;-81
2021/12/15 00:09:51;;;;;;;8.32;4.53;;;9.50;94.30;;;;;;5035358;28;20090;-83
2021/12/15 00:12:30;;;;;;;11.13;5.50;;;9.50;94.40;;;;;;5017006;28;20033;-82
2021/12/15 00:15:39;;;;;;;10.55;4.90;;;9.40;94.30;;;;;;4997692;28;20054;-82
2021/12/15 00:19:08;;;;;;;13.18;5.75;;;9.50;94.40;;;;;;4939103;28;20169;-82
2021/12/15 00:21:35;;;;;;;12.60;5.57;;;9.40;94.40;;;;;;4957609;28;20178;-82
2021/12/15 00:24:03;;;;;;;10.20;5.13;;;9.40;94.40;;;;;;4922697;29;20121;-82
2021/12/15 00:26:29;;;;;;;9.73;5.25;;;9.40;94.40;;;;;;4924811;29;20043;-82
2021/12/15 00:28:55;;;;;;;10.40;5.05;;;9.50;94.40;;;;;;4957989;28;20050;-82
2021/12/15 00:31:22;;;;;;;10.02;5.60;;;9.40;94.40;;;;;;4943311;29;20073;-83
2021/12/15 00:33:49;;;;;;;9.25;4.80;;;9.40;94.40;;;;;;4952729;28;20113;-82
2021/12/15 00:36:15;;;;;;;10.88;4.85;;;9.40;94.40;;;;;;4961438;28;20038;-81
2021/12/15 00:38:44;;;;;;;9.10;4.97;;;9.40;94.40;;;;;;4945036;28;20374;-82
2021/12/15 00:41:10;;;;;;;11.18;5.15;;;9.40;94.40;;;;;;4928108;28;20521;-81
2021/12/15 00:43:36;;;;;;;10.20;5.03;;;9.40;94.40;;;;;;4960017;28;20049;-82
2021/12/15 00:50:38;;;;;;;8.80;4.50;;;9.40;94.50;;;;;;5109813;28;20500;-84
2021/12/15 00:53:08;;;;;;;8.52;4.30;;;9.40;94.40;;;;;;5114286;28;20499;-82
2021/12/15 00:56:45;;;;;;;8.50;3.95;;;9.30;94.40;;;;;;5114637;28;20040;-83
2021/12/15 00:59:21;;;;;;;8.93;3.85;;;9.40;94.40;;;;;;5113426;28;20070;-80
2021/12/15 01:48:32;;;;;;;9.85;4.47;;;9.40;94.30;;;;;;4945777;28;20496;-79
2021/12/15 01:50:58;;;;;;;9.77;4.53;;;9.40;94.30;;;;;;4954288;29;20485;-78
2021/12/15 01:53:25;;;;;;;8.98;4.35;;;9.40;94.30;;;;;;4959049;29;20062;-78
2021/12/15 01:55:52;;;;;;;11.18;5.25;;;9.40;94.30;;;;;;4967734;28;20133;-78
2021/12/15 01:58:18;;;;;;;10.35;5.05;;;9.40;94.30;;;;;;5011576;28;20045;-80
2021/12/15 02:00:49;;;;;;;10.65;5.45;;;9.40;94.40;;;;;;4994708;28;20077;-79
2021/12/15 02:03:16;;;;;;;11.40;5.47;;;9.40;94.40;;;;;;4979150;28;20042;-79
2021/12/15 02:05:42;;;;;;;10.82;5.13;;;9.50;94.40;;;;;;4994549;28;20057;-79
2021/12/15 02:08:08;;;;;;;9.93;5.20;;;9.40;94.40;;;;;;4962696;28;20068;-79
2021/12/15 02:10:37;;;;;;;10.57;5.40;;;9.40;94.60;;;;;;5010788;28;20074;-79
2021/12/15 02:13:06;;;;;;;10.30;5.10;;;9.50;94.40;;;;;;4978860;28;20085;-79
2021/12/15 02:15:36;;;;;;;13.10;5.78;;;9.40;94.40;;;;;;4978219;28;20096;-79
2021/12/15 02:18:08;;;;;;;11.02;5.43;;;9.40;94.40;;;;;;4994720;28;20065;-79
2021/12/15 02:20:38;;;;;;;10.88;5.40;;;9.50;94.40;;;;;;4979110;28;20503;-79
2021/12/15 02:23:05;;;;;;;11.75;5.60;;;9.40;94.40;;;;;;4978780;28;20100;-79
2021/12/15 02:25:31;;;;;;;9.90;5.40;;;9.40;94.40;;;;;;5097592;28;20054;-79
2021/12/15 02:27:57;;;;;;;10.13;5.30;;;9.50;94.40;;;;;;5078198;28;20047;-80
2021/12/15 02:30:44;;;;;;;12.93;5.82;;;9.50;94.40;;;;;;5077922;28;20048;-80
2021/12/15 02:33:42;;;;;;;12.35;5.15;;;9.60;94.40;;;;;;5098004;28;20118;-79
2021/12/15 02:38:42;;;;;;;;;;;9.40;94.40;;;;;;5097447;28;20381;-79
2021/12/15 02:41:19;;;;;;;8.05;3.85;;;9.50;94.40;;;;;;5094525;28;20010;-79
2021/12/15 02:43:47;;;;;;;10.57;5.22;;;9.40;94.40;;;;;;5063832;28;20126;-79
2021/12/15 02:46:13;;;;;;;9.43;4.70;;;9.40;94.30;;;;;;5094592;28;20050;-79
2021/12/15 02:48:38;;;;;;;11.70;5.05;;;9.40;94.40;;;;;;5077661;28;20480;-79
2021/12/15 02:51:04;;;;;;;9.82;4.70;;;9.40;94.40;;;;;;5094623;28;20035;-79
2021/12/15 02:53:30;;;;;;;10.55;5.13;;;9.50;94.40;;;;;;5094372;28;20050;-79
2021/12/15 02:55:56;;;;;;;12.10;5.20;;;9.50;94.40;;;;;;5112654;28;20077;-79
2021/12/15 02:58:23;;;;;;;10.88;5.50;;;9.50;94.40;;;;;;5112836;28;20045;-79
2021/12/15 03:00:59;;;;;;;10.48;5.57;;;9.50;94.40;;;;;;5094858;28;20050;-79
2021/12/15 03:03:58;;;;;;;11.13;5.22;;;9.40;94.40;;;;;;5095543;28;20043;-79
2021/12/15 03:06:18;;;;;;;10.45;4.90;;;9.40;94.40;;;;;;5097336;28;20142;-79
2021/12/15 03:08:53;;;;;;;8.50;4.28;;;9.50;94.40;;;;;;5078215;28;20045;-79
2021/12/15 03:16:37;;;;;;;11.02;4.97;;;9.50;94.40;;;;;;5096638;28;20481;-79
2021/12/15 03:19:03;;;;;;;13.07;5.70;;;9.40;94.40;;;;;;5094245;28;20047;-78
2021/12/15 03:21:29;;;;;;;11.85;5.43;;;9.50;94.40;;;;;;5079619;28;20100;-79
2021/12/15 03:24:00;;;;;;;11.20;5.28;;;9.40;94.40;;;;;;5116260;28;20078;-79
2021/12/15 03:26:34;;;;;;;11.38;5.50;;;9.40;94.40;;;;;;5080946;28;20042;-79
2021/12/15 03:34:39;;;;;;;11.50;5.10;;;9.40;94.40;;;;;;5115816;28;20050;-79
2021/12/15 03:37:23;;;;;;;12.63;5.03;;;9.40;94.40;;;;;;5116582;28;20553;-79
2021/12/15 03:39:53;;;;;;;9.05;4.45;;;9.40;94.40;;;;;;5098259;28;20064;-79
2021/12/15 03:42:24;;;;;;;8.60;4.47;;;9.50;94.50;;;;;;5080383;28;20046;-79
2021/12/15 03:44:50;;;;;;;10.98;5.03;;;9.40;94.40;;;;;;5115553;28;20051;-79
2021/12/15 03:47:22;;;;;;;8.43;3.75;;;9.50;94.40;;;;;;5097695;28;20044;-79
2021/12/15 03:49:47;;;;;;;;;;;9.50;94.50;;;;;;5080678;28;20039;-79
2021/12/15 03:52:14;;;;;;;10.38;3.92;;;9.40;94.40;;;;;;5080815;28;19919;-79
2021/12/15 03:54:40;;;;;;;9.15;4.30;;;9.40;94.40;;;;;;5097619;28;20384;-79
2021/12/15 03:57:06;;;;;;;12.02;5.18;;;9.40;94.40;;;;;;5115331;28;20046;-79
2021/12/15 03:59:34;;;;;;;10.13;4.57;;;9.40;94.40;;;;;;5080365;28;20051;-79
2021/12/15 04:02:00;;;;;;;9.82;4.63;;;9.50;94.40;;;;;;5097368;28;20040;-79
2021/12/15 04:04:26;;;;;;;8.48;4.38;;;9.50;94.40;;;;;;5080630;28;20035;-79
2021/12/15 04:06:52;;;;;;;8.95;4.35;;;9.40;94.40;;;;;;5097269;28;20388;-80
2021/12/15 04:09:18;;;;;;;9.48;4.32;;;9.50;94.40;;;;;;5115082;28;20032;-79
2021/12/15 04:11:45;;;;;;;7.90;4.03;;;9.40;94.40;;;;;;5080487;28;20048;-78
2021/12/15 04:14:20;;;;;;;8.73;4.28;;;9.40;94.40;;;;;;5080291;28;20047;-79
2021/12/15 04:17:00;;;;;;;10.88;4.50;;;9.40;94.40;;;;;;5081091;28;20044;-79
2021/12/15 04:19:26;;;;;;;10.55;4.95;;;9.40;94.40;;;;;;5115457;28;20481;-79
2021/12/15 04:21:52;;;;;;;10.05;4.53;;;9.40;94.40;;;;;;5063681;28;20432;-79
2021/12/15 04:24:19;;;;;;;11.23;4.70;;;9.40;94.40;;;;;;5079661;28;20047;-79
2021/12/15 04:26:47;;;;;;;10.98;4.63;;;9.40;94.40;;;;;;5080218;28;20039;-79
2021/12/15 04:29:14;;;;;;;9.15;4.40;;;9.40;94.40;;;;;;5096898;28;20111;-79
2021/12/15 04:31:45;;;;;;;8.73;4.20;;;9.40;94.40;;;;;;5080245;27;20051;-79
2021/12/15 04:34:12;;;;;;;10.07;4.95;;;9.40;94.40;;;;;;5096436;28;20431;-78
2021/12/15 04:36:42;;;;;;;8.27;4.35;;;9.40;94.40;;;;;;5079699;28;20047;-79
2021/12/15 04:39:11;;;;;;;10.63;5.00;;;9.50;94.50;;;;;;5096856;28;20067;-79
2021/12/15 04:41:37;;;;;;;10.38;4.63;;;9.40;94.40;;;;;;5114991;28;20050;-79
2021/12/15 04:44:10;;;;;;;10.30;4.75;;;9.40;94.50;;;;;;5096848;28;20031;-79
2021/12/15 04:46:38;;;;;;;10.02;4.75;;;9.30;94.40;;;;;;5080407;28;20476;-79
2021/12/15 04:49:07;;;;;;;11.55;5.25;;;9.50;94.50;;;;;;5115079;28;20383;-79
2021/12/15 04:51:34;;;;;;;9.55;4.53;;;9.40;94.40;;;;;;5096974;28;20051;-79
2021/12/15 04:54:00;;;;;;;10.85;4.78;;;9.50;94.50;;;;;;5062964;28;20111;-79
2021/12/15 04:56:26;;;;;;;11.20;4.95;;;9.50;94.50;;;;;;5079451;28;20039;-79
2021/12/15 04:58:54;;;;;;;10.80;4.38;;;9.50;94.50;;;;;;5079521;28;20481;-79
2021/12/15 05:01:20;;;;;;;10.95;5.07;;;9.50;94.40;;;;;;5096191;28;20046;-79
2021/12/15 05:03:46;;;;;;;9.48;4.72;;;9.50;94.40;;;;;;5062542;28;20504;-79
2021/12/15 05:06:12;;;;;;;10.35;4.68;;;9.40;94.40;;;;;;5114867;28;20051;-78
2021/12/15 05:08:42;;;;;;;10.43;5.10;;;9.50;94.40;;;;;;5096456;28;20036;-79
2021/12/15 05:11:10;;;;;;;10.07;5.03;;;9.40;94.40;;;;;;5079889;28;20446;-79
2021/12/15 05:13:37;;;;;;;10.73;4.72;;;9.50;94.40;;;;;;5079555;28;20043;-79
2021/12/15 05:16:05;;;;;;;9.68;4.00;;;9.40;94.40;;;;;;5062539;28;20435;-79
2021/12/15 05:18:31;;;;;;;10.05;4.60;;;9.50;94.40;;;;;;5096385;28;20054;-79
2021/12/15 05:20:59;;;;;;;10.65;4.55;;;9.50;94.40;;;;;;5079031;28;20040;-79
2021/12/15 05:23:29;;;;;;;9.75;4.32;;;9.50;94.40;;;;;;5114616;28;20496;-79
2021/12/15 05:25:57;;;;;;;11.18;4.50;;;9.50;94.40;;;;;;5095681;28;20116;-79
2021/12/15 05:28:23;;;;;;;10.15;4.40;;;9.50;94.40;;;;;;5096912;28;20044;-79
2021/12/15 05:30:49;;;;;;;10.45;4.38;;;9.50;94.40;;;;;;5096434;28;20038;-79
2021/12/15 05:33:15;;;;;;;11.40;4.93;;;9.50;94.40;;;;;;5096300;28;20158;-79
2021/12/15 05:35:41;;;;;;;10.65;4.63;;;9.50;94.40;;;;;;5078926;28;20042;-81
2021/12/15 05:38:08;;;;;;;10.63;4.72;;;9.50;94.40;;;;;;5078830;28;20381;-79
2021/12/15 05:40:35;;;;;;;13.73;5.82;;;9.50;94.40;;;;;;5095907;28;20106;-79
2021/12/15 05:43:02;;;;;;;9.25;4.90;;;9.60;94.40;;;;;;5079571;28;20050;-79
2021/12/15 05:45:31;;;;;;;10.80;4.65;;;9.50;94.40;;;;;;5095039;28;20102;-79
2021/12/15 05:47:58;;;;;;;10.45;4.60;;;9.60;94.40;;;;;;5095786;28;20036;-79
2021/12/15 05:50:26;;;;;;;10.30;5.00;;;9.50;94.40;;;;;;5078892;28;20385;-79
2021/12/15 05:52:52;;;;;;;9.77;4.70;;;9.50;94.40;;;;;;5094025;28;20040;-79
2021/12/15 05:55:19;;;;;;;11.20;5.20;;;9.60;94.40;;;;;;5114137;28;20048;-78
2021/12/15 05:57:47;;;;;;;12.07;5.45;;;9.60;94.40;;;;;;5078666;28;20108;-79
2021/12/15 06:00:18;;;;;;;10.15;4.85;;;9.60;94.40;;;;;;5096431;28;20066;-79
2021/12/15 06:02:45;;;;;;;10.43;4.82;;;9.60;94.40;;;;;;5095294;28;20047;-80
2021/12/15 06:05:12;;;;;;;10.65;4.80;;;9.50;94.30;;;;;;5095347;28;20071;-79
2021/12/15 06:07:39;;;;;;;9.70;4.70;;;9.60;94.40;;;;;;5114053;28;20036;-80
2021/12/15 06:10:09;;;;;;;10.35;4.57;;;9.60;94.30;;;;;;5095480;28;20044;-79
2021/12/15 06:12:35;;;;;;;11.65;5.50;;;9.60;94.40;;;;;;5078595;28;20036;-81
2021/12/15 06:15:02;;;;;;;9.50;4.75;;;9.60;94.40;;;;;;5113971;28;20122;-79
2021/12/15 06:17:29;;;;;;;12.35;5.40;;;9.50;94.30;;;;;;5095317;28;20437;-79
2021/12/15 06:19:56;;;;;;;12.80;5.80;;;9.60;94.40;;;;;;5094981;28;20374;-79
2021/12/15 06:22:26;;;;;;;13.68;5.38;;;9.60;94.40;;;;;;5113202;28;20118;-79
2021/12/15 06:24:53;;;;;;;11.38;5.22;;;9.60;94.40;;;;;;5078431;28;20044;-79
2021/12/15 06:27:20;;;;;;;12.13;5.57;;;9.60;94.40;;;;;;5094753;28;20103;-79
2021/12/15 06:29:48;;;;;;;12.45;6.05;;;9.60;94.30;;;;;;5113766;28;20062;-79
2021/12/15 06:32:15;;;;;;;11.43;5.65;;;9.60;94.30;;;;;;5095229;28;20070;-79
2021/12/15 06:34:42;;;;;;;11.10;5.45;;;9.60;94.30;;;;;;5111325;28;20141;-79
2021/12/15 06:37:09;;;;;;;13.38;5.43;;;9.60;94.30;;;;;;5061245;28;20047;-80
2021/12/15 06:39:36;;;;;;;11.68;5.50;;;9.60;94.30;;;;;;5094723;28;20050;-79
2021/12/15 06:42:03;;;;;;;11.15;4.95;;;9.60;94.30;;;;;;5095054;28;20047;-80
2021/12/15 06:44:28;;;;;;;11.65;5.80;;;9.60;94.30;;;;;;5110817;28;20044;-79
2021/12/15 06:47:24;;;;;;;13.00;6.38;;;9.60;94.30;;;;;;5078199;28;20054;-80
2021/12/15 06:58:11;;;;;;;12.20;5.65;;;9.60;94.30;;;;;;5096344;28;20396;-80
2021/12/15 07:00:33;;;;;;;11.73;5.68;;;9.60;94.30;;;;;;5097292;28;20048;-80
2021/12/15 07:03:00;;;;;;;10.82;5.50;;;9.70;94.30;;;;;;5064158;28;20047;-80
2021/12/15 07:05:27;;;;;;;10.40;4.88;;;9.60;94.30;;;;;;5127336;28;20044;-80
2021/12/15 07:07:55;;;;;;;13.10;5.95;;;9.60;94.30;;;;;;5108320;28;20036;-78
2021/12/15 07:10:25;;;;;;;15.10;5.75;;;9.60;94.30;;;;;;5096064;28;20044;-79
2021/12/15 07:12:51;;;;;;;13.45;6.28;;;9.60;94.30;;;;;;5106834;28;20139;-80
2021/12/15 07:15:18;;;;;;;14.85;6.60;;;9.70;94.30;;;;;;5105599;28;20039;-78
2021/12/15 07:17:47;;;;;;;13.48;6.38;;;9.60;94.30;;;;;;5065606;28;20036;-78
2021/12/15 07:22:52;;;;;;;16.17;6.72;;;9.60;94.30;;;;;;5081134;28;20050;-79
2021/12/15 07:25:22;;;;;;;15.20;7.10;;;9.60;94.30;;;;;;5112643;28;20044;-77
2021/12/15 07:27:49;;;;;;;16.27;7.70;;;9.70;94.30;;;;;;5110472;28;20068;-77
2021/12/15 07:30:15;;;;;;;16.45;6.85;;;9.60;94.30;;;;;;5094335;28;20135;-77
2021/12/15 07:32:41;;;;;;;14.07;6.55;;;9.70;94.50;;;;;;5094489;28;20484;-77
2021/12/15 07:35:08;;;;;;;14.57;6.30;;;9.70;94.30;;;;;;5114361;28;20036;-77
2021/12/15 07:37:34;;;;;;;18.33;6.75;;;9.60;94.30;;;;;;5104411;28;20489;-79
2021/12/15 07:40:03;;;;;;;12.32;5.80;;;9.70;94.30;;;;;;5104080;28;20133;-81
2021/12/15 07:42:35;;;;;;;13.02;5.95;;;9.70;94.30;;;;;;5080038;28;20036;-80
2021/12/15 07:45:03;;;;;;;13.77;5.97;;;9.70;94.30;;;;;;5080120;28;20046;-79
2021/12/15 07:47:29;;;;;;;11.98;5.70;;;9.70;94.30;;;;;;5079569;28;20055;-80
2021/12/15 07:50:01;;;;;;;12.95;5.57;;;9.70;94.30;;;;;;5112165;28;20036;-81
2021/12/15 07:52:39;;;;;;;12.48;4.90;;;9.70;94.30;;;;;;5077202;28;20047;-80
2021/12/15 07:55:06;;;;;;;14.13;6.07;;;9.70;94.40;;;;;;5068723;28;20039;-80
2021/12/15 07:57:38;;;;;;;12.25;5.10;;;9.80;94.40;;;;;;5055197;28;20037;-83
2021/12/15 08:00:07;;;;;;;11.52;5.10;;;9.70;94.30;;;;;;5038184;28;20048;-80
2021/12/15 08:05:29;;;;;;;15.65;6.10;;;9.60;94.30;;;;;;5002297;28;20041;-81
2021/12/15 08:08:00;;;;;;;13.48;5.78;;;9.70;94.30;;;;;;4986173;28;20049;-80
2021/12/15 08:10:46;;;;;;;12.38;5.38;;;9.70;94.30;;;;;;5033026;28;20040;-81
2021/12/15 08:16:26;;;;;;;16.10;6.32;;;9.70;94.30;;;;;;4915026;29;20048;-78
2021/12/15 08:18:51;;;;;;;15.98;6.85;;;9.70;94.30;;;;;;4897370;29;20067;-78
2021/12/15 08:21:19;;;;;;;16.13;6.65;;;9.70;94.30;;;;;;4881783;29;20530;-80
2021/12/15 08:23:45;;;;;;;14.57;6.32;;;9.70;94.30;;;;;;4915398;29;20040;-79
2021/12/15 08:26:13;;;;;;;16.05;6.15;;;9.80;94.30;;;;;;4904654;29;20540;-80
2021/12/15 08:28:40;;;;;;;13.90;6.60;;;9.70;94.30;;;;;;4935273;29;20047;-80
2021/12/15 08:31:06;;;;;;;15.50;5.97;;;9.80;94.30;;;;;;4935140;29;20035;-81
2021/12/15 08:33:55;;;;;;;14.00;5.88;;;9.80;94.40;;;;;;4921228;29;20111;-83
2021/12/15 08:36:21;;;;;;;13.52;5.50;;;9.80;94.30;;;;;;4973175;28;20086;-82
2021/12/15 08:38:55;;;;;;;15.68;6.30;;;9.90;94.40;;;;;;4957141;28;20181;-80
2021/12/15 08:48:46;;;;;;;13.43;5.15;;;9.80;94.30;;;;;;5113366;28;20034;-80
2021/12/15 08:56:08;;;;;;;19.67;7.60;;;9.80;94.20;;;;;;5009001;28;20052;-78
2021/12/15 09:02:38;;;;;;;14.45;6.22;;;9.90;94.30;;;;;;4972368;28;20110;-78
2021/12/15 09:05:05;;;;;;;14.38;5.57;;;9.90;94.20;;;;;;4955473;28;20496;-78
2021/12/15 09:07:31;;;;;;;15.10;6.25;;;9.90;94.20;;;;;;4940799;28;20039;-79
2021/12/15 09:09:59;;;;;;;13.70;6.20;;;9.90;94.20;;;;;;4960425;28;20065;-79
2021/12/15 09:12:25;;;;;;;14.52;6.57;;;9.80;94.20;;;;;;4940353;28;20046;-78
2021/12/15 09:14:51;;;;;;;16.27;6.28;;;9.90;94.20;;;;;;4940414;28;20085;-79
2021/12/15 09:17:17;;;;;;;15.25;6.40;;;9.90;94.30;;;;;;4978063;28;20442;-80
2021/12/15 09:19:43;;;;;;;14.20;6.55;;;10.00;94.30;;;;;;4961503;28;20145;-78
2021/12/15 09:22:09;;;;;;;14.93;7.07;;;10.00;94.30;;;;;;4974663;28;20427;-80
2021/12/15 09:24:36;;;;;;;18.25;7.05;;;10.00;94.30;;;;;;4976704;28;20053;-81
2021/12/15 09:27:02;;;;;;;16.35;6.85;;;10.00;94.20;;;;;;4940901;28;20042;-80
2021/12/15 09:29:28;;;;;;;18.85;8.15;;;10.10;94.20;;;;;;4990392;28;20077;-80
2021/12/15 09:31:57;;;;;;;15.50;7.03;;;10.00;94.20;;;;;;5059600;28;20035;-79
2021/12/15 09:34:35;;;;;;;19.38;7.85;;;10.00;94.30;;;;;;5114078;28;20054;-81
2021/12/15 09:37:04;;;;;;;15.52;7.05;;;10.00;94.20;;;;;;5080425;28;20562;-80
2021/12/15 09:39:42;;;;;;;17.10;7.47;;;10.10;94.30;;;;;;5033978;28;20036;-79
2021/12/15 09:42:27;;;;;;;16.73;7.30;;;10.10;94.20;;;;;;5030942;28;20077;-78
2021/12/15 09:44:59;;;;;;;15.80;6.85;;;10.10;94.30;;;;;;4978985;28;20168;-81
2021/12/15 09:47:44;;;;;;;14.02;6.82;;;10.10;94.20;;;;;;4994989;28;20076;-80
2021/12/15 10:04:30;;;;;;;18.98;8.23;;;10.20;94.20;;;;;;4780782;30;20084;-78
2021/12/15 10:07:19;;;;;;;20.58;8.18;;;10.20;94.20;;;;;;4765492;30;20109;-77
2021/12/15 10:18:24;;;;;;;19.83;8.90;;;10.20;94.10;;;;;;4740978;30;20131;-79
2021/12/15 10:20:50;;;;;;;17.40;8.63;;;10.30;94.20;;;;;;4754448;30;20047;-79
2021/12/15 10:23:24;;;;;;;17.70;8.27;;;10.20;94.10;;;;;;4769710;29;20485;-79
2021/12/15 10:26:09;;;;;;;15.98;7.10;;;10.30;94.20;;;;;;4806838;29;20103;-79
2021/12/15 10:28:35;;;;;;;15.88;8.07;;;10.30;94.10;;;;;;4819641;29;20046;-79
2021/12/15 10:31:07;;;;;;;19.15;7.43;;;10.30;94.10;;;;;;4830866;29;20133;-79
2021/12/15 10:33:44;;;;;;;16.30;7.82;;;10.30;94.10;;;;;;4846039;29;20384;-79
2021/12/15 10:36:14;;;;;;;14.82;7.18;;;10.30;94.10;;;;;;4878708;29;20067;-78
2021/12/15 10:38:51;;;;;;;16.77;7.72;;;10.40;94.10;;;;;;4938449;29;20082;-78
2021/12/15 10:41:24;;;;;;;18.15;8.00;;;10.30;94.10;;;;;;5009675;28;20136;-80
2021/12/15 10:48:10;;;;;;;14.27;7.10;;;10.40;94.10;;;;;;5028458;28;20088;-79
2021/12/15 10:51:31;;;;;;;13.10;6.63;;;10.50;94.10;;;;;;4932779;29;20465;-78
2021/12/15 10:54:56;;;;;;;13.13;5.90;;;10.40;94.10;;;;;;4970698;28;20050;-78
2021/12/15 11:01:51;;;;;;;11.13;5.93;;;10.60;94.10;;;;;;4873374;29;20049;-79
2021/12/15 11:08:26;;;;;;;13.52;6.22;;;10.60;94.00;;;;;;4746830;30;20056;-80
2021/12/15 11:11:05;;;;;;;12.75;6.05;;;10.70;94.00;;;;;;4747969;30;20044;-80
2021/12/15 11:13:32;;;;;;;14.98;7.22;;;10.70;94.00;;;;;;4748461;30;20139;-79
2021/12/15 11:15:58;;;;;;;14.32;7.30;;;10.90;94.00;;;;;;4749224;30;20083;-79
2021/12/15 11:18:28;;;;;;;16.65;8.68;;;10.80;93.90;;;;;;4787452;29;20065;-79
2021/12/15 11:20:58;;;;;;;15.75;7.95;;;10.70;93.90;;;;;;4899690;29;20058;-79
2021/12/15 11:23:27;;;;;;;13.90;7.57;;;10.70;93.90;;;;;;4938961;29;20102;-79
2021/12/15 11:25:56;;;;;;;16.65;8.75;;;10.70;93.90;;;;;;4951566;29;20062;-79
2021/12/15 11:28:30;;;;;;;17.52;8.73;;;10.80;93.90;;;;;;4919563;29;20078;-79
2021/12/15 11:31:01;;;;;;;14.10;7.85;;;10.90;93.90;;;;;;4987339;28;20057;-78
2021/12/15 11:33:32;;;;;;;14.10;8.30;;;10.90;93.90;;;;;;5023484;28;20144;-78
2021/12/15 11:36:10;;;;;;;;;;;10.90;93.90;;;;;;5021767;28;20099;-80
2021/12/15 11:38:40;;;;;;;13.30;7.43;;;10.90;93.80;;;;;;5097771;28;19983;-79
2021/12/15 11:41:15;;;;;;;17.00;9.07;;;10.90;93.80;;;;;;5125854;28;20059;-79
2021/12/15 11:44:00;;;;;;;15.23;8.32;;;10.90;93.80;;;;;;5092689;28;20685;-78
2021/12/15 11:46:43;;;;;;;14.75;8.55;;;10.90;93.80;;;;;;5109582;28;20104;-78
2021/12/15 11:49:14;;;;;;;13.52;7.90;;;10.90;93.80;;;;;;5105568;28;20058;-78
2021/12/15 11:51:46;;;;;;;14.27;8.10;;;11.00;93.90;;;;;;5088308;28;20495;-78
2021/12/15 11:54:22;;;;;;;12.02;6.95;;;10.90;93.80;;;;;;5126543;28;20092;-78
2021/12/15 11:56:52;;;;;;;13.55;7.72;;;10.90;93.80;;;;;;5125064;28;20031;-80
2021/12/15 11:59:25;;;;;;;12.80;7.68;;;11.00;93.90;;;;;;5086050;28;20031;-82
2021/12/15 12:01:56;;;;;;;14.73;8.15;;;11.00;93.90;;;;;;5083721;28;20031;-80
2021/12/15 12:04:31;;;;;;;14.55;7.68;;;10.90;93.90;;;;;;5040559;28;20045;-82
2021/12/15 12:07:16;;;;;;;14.85;8.38;;;10.90;93.90;;;;;;5022685;28;20037;-81
2021/12/15 12:09:44;;;;;;;11.80;7.43;;;11.00;93.90;;;;;;5055220;28;20037;-81
2021/12/15 12:12:11;;;;;;;12.75;6.95;;;11.00;94.20;;;;;;5039044;28;20524;-81
2021/12/15 12:14:49;;;;;;;11.82;7.10;;;11.00;93.90;;;;;;5072170;28;20051;-81
2021/12/15 12:17:27;;;;;;;12.32;6.97;;;11.00;93.90;;;;;;4973096;28;20039;-81
2021/12/15 12:19:56;;;;;;;10.88;6.10;;;11.00;93.80;;;;;;4973465;28;20137;-81
2021/12/15 12:22:25;;;;;;;14.75;7.75;;;11.00;93.90;;;;;;4957701;28;20042;-81
2021/12/15 12:24:55;;;;;;;12.95;7.57;;;11.00;93.90;;;;;;4960057;28;20501;-81
2021/12/15 12:27:28;;;;;;;13.95;7.63;;;11.10;93.90;;;;;;4957839;28;20043;-81
2021/12/15 12:30:18;;;;;;;14.55;8.70;;;11.00;93.80;;;;;;4973352;28;20035;-81
2021/12/15 12:32:45;;;;;;;15.77;9.25;;;11.10;93.80;;;;;;4962162;28;20119;-80
2021/12/15 12:35:17;;;;;;;14.20;8.48;;;11.10;93.80;;;;;;4990860;28;20034;-80
2021/12/15 12:37:43;;;;;;;14.23;8.55;;;11.10;93.70;;;;;;5016402;28;20050;-79
2021/12/15 12:40:29;;;;;;;13.70;8.07;;;11.20;93.70;;;;;;5017948;28;20492;-78
2021/12/15 12:42:55;;;;;;;12.32;7.22;;;11.20;93.70;;;;;;5016622;28;20121;-76
2021/12/15 12:45:37;;;;;;;11.45;6.55;;;11.30;93.70;;;;;;5017067;28;20054;-78
2021/12/15 12:48:31;;;;;;;;;;;11.30;93.60;;;;;;5060699;28;20035;-74
2021/12/15 12:59:36;;;;;;;11.82;7.05;;;11.30;93.60;;;;;;5115841;28;20109;-78
2021/12/15 13:02:05;;;;;;;;;;;11.30;93.60;;;;;;5097374;28;20040;-81
2021/12/15 13:04:41;;;;;;;8.95;5.63;;;11.30;93.50;;;;;;5106042;28;19962;-81
2021/12/15 13:07:07;;;;;;;11.55;6.68;;;11.30;93.50;;;;;;5065458;28;20040;-81
2021/12/15 13:09:49;;;;;;;12.32;7.75;;;11.30;93.50;;;;;;5080412;28;20047;-80
2021/12/15 13:12:22;;;;;;;12.07;6.55;;;11.20;93.50;;;;;;5098693;28;20568;-79
2021/12/15 13:14:48;;;;;;;10.98;6.95;;;11.30;93.60;;;;;;5116788;28;20036;-80
2021/12/15 13:17:20;;;;;;;12.23;6.55;;;11.30;93.60;;;;;;5096208;28;20036;-77
2021/12/15 13:19:46;;;;;;;9.18;5.75;;;11.30;93.60;;;;;;5079935;28;20058;-79
2021/12/15 13:22:23;;;;;;;9.57;6.18;;;11.30;93.60;;;;;;5081966;28;20043;-77
2021/12/15 13:30:48;;;;;;;8.95;5.93;;;11.20;93.60;;;;;;5130827;28;20044;-80
2021/12/15 13:33:27;;;;;;;9.15;5.30;;;11.30;93.90;;;;;;5103967;28;20126;-81
2021/12/15 13:35:56;;;;;;;9.25;4.80;;;11.20;93.60;;;;;;5101167;28;20503;-79
2021/12/15 13:38:38;;;;;;;8.90;5.47;;;11.20;93.60;;;;;;5078651;28;20031;-77
2021/12/15 13:41:20;;;;;;;8.13;4.80;;;11.30;93.60;;;;;;5095873;28;20058;-78
2021/12/15 13:43:55;;;;;;;9.63;5.53;;;11.20;93.60;;;;;;5095042;28;20118;-80
2021/12/15 13:46:39;;;;;;;9.73;5.57;;;11.20;93.60;;;;;;5062511;28;20118;-79
2021/12/15 13:49:38;;;;;;;7.82;5.00;;;11.10;93.60;;;;;;5080870;28;20062;-80
2021/12/15 13:52:29;;;;;;;11.15;6.40;;;11.20;93.60;;;;;;5101493;28;20048;-80
2021/12/15 13:54:59;;;;;;;11.73;6.30;;;11.20;93.60;;;;;;5113847;28;20047;-80
2021/12/15 13:57:30;;;;;;;10.13;6.30;;;11.20;93.60;;;;;;5079047;28;20116;-80
2021/12/15 14:00:04;;;;;;;9.30;5.67;;;11.10;93.60;;;;;;5095526;28;20059;-82
2021/12/15 14:02:35;;;;;;;8.07;5.03;;;11.10;93.60;;;;;;5096771;28;20116;-80
2021/12/15 14:05:23;;;;;;;7.47;5.05;;;11.10;93.60;;;;;;5084902;28;20048;-84
2021/12/15 14:07:53;;;;;;;7.38;4.30;;;11.10;93.60;;;;;;5060801;28;20033;-82
2021/12/15 14:10:42;;;;;;;7.53;4.35;;;11.00;93.60;;;;;;5072458;28;20049;-81
2021/12/15 14:13:07;;;;;;;6.60;4.45;;;11.10;93.60;;;;;;5054958;28;20093;-81
2021/12/15 14:15:46;;;;;;;6.82;4.47;;;11.10;93.70;;;;;;5056778;28;20044;-82
2021/12/15 14:18:20;;;;;;;6.70;3.95;;;11.00;93.50;;;;;;5057893;28;20425;-81
2021/12/15 14:20:59;;;;;;;6.78;4.15;;;11.10;93.60;;;;;;5057761;28;20037;-81
2021/12/15 14:23:35;;;;;;;8.32;4.43;;;11.00;93.60;;;;;;5055260;28;20127;-81
2021/12/15 14:26:07;;;;;;;6.10;3.90;;;10.90;93.50;;;;;;5053821;28;20079;-82
2021/12/15 14:31:58;;;;;;;6.97;3.83;;;10.90;93.50;;;;;;5009613;28;20049;-84
2021/12/15 14:34:29;;;;;;;6.53;4.18;;;10.90;93.50;;;;;;4996353;28;20042;-82
2021/12/15 14:36:59;;;;;;;6.13;3.60;;;10.90;93.60;;;;;;5011362;28;20235;-78
2021/12/15 14:39:30;;;;;;;5.90;3.50;;;10.90;93.50;;;;;;5012762;28;20129;-80
2021/12/15 14:41:59;;;;;;;5.68;3.20;;;10.80;93.50;;;;;;5012212;28;20064;-79
2021/12/15 14:44:30;;;;;;;6.30;3.33;;;10.80;93.60;;;;;;5000368;28;20496;-79
2021/12/15 14:47:04;;;;;;;6.07;3.42;;;10.80;93.50;;;;;;4995925;28;20556;-78
2021/12/15 14:49:34;;;;;;;5.45;3.15;;;10.80;93.60;;;;;;4993445;28;20133;-79
2021/12/15 14:52:05;;;;;;;6.63;3.58;;;10.80;93.60;;;;;;4995402;28;20100;-80
2021/12/15 14:54:31;;;;;;;;;;;10.80;93.60;;;;;;5010677;28;20527;-78
2021/12/15 14:57:02;;;;;;;6.68;3.80;;;10.70;93.50;;;;;;5010126;28;20012;-79
2021/12/15 14:59:31;;;;;;;5.43;2.90;;;10.70;93.60;;;;;;4996720;28;20037;-80
2021/12/15 15:02:04;;;;;;;6.20;2.85;;;10.70;93.60;;;;;;5014366;28;20068;-80
2021/12/15 15:04:30;;;;;;;4.85;2.67;;;10.70;93.60;;;;;;4997635;28;20129;-80
2021/12/15 15:07:01;;;;;;;5.40;3.30;;;10.70;93.60;;;;;;5014957;28;20456;-80
2021/12/15 15:09:33;;;;;;;4.55;2.53;;;10.70;93.60;;;;;;5091461;28;20067;-80
2021/12/15 15:12:00;;;;;;;;;;;10.70;93.60;;;;;;5114847;28;20339;-79
2021/12/15 15:14:29;;;;;;;5.85;2.65;;;10.60;93.50;;;;;;5113938;28;20417;-80
2021/12/15 15:16:55;;;;;;;5.20;2.40;;;10.60;93.60;;;;;;5098111;28;20040;-79
2021/12/15 15:19:21;;;;;;;4.75;2.75;;;10.60;93.60;;;;;;5112217;28;20133;-78
2021/12/15 15:21:47;;;;;;;5.47;2.78;;;10.60;93.60;;;;;;5097677;28;20048;-85
2021/12/15 15:24:34;;;;;;;5.20;2.88;;;10.70;93.60;;;;;;5055999;28;20421;-85
2021/12/15 15:30:02;;;;;;;5.07;2.50;;;10.60;93.60;;;;;;4976704;28;20045;-84
2021/12/15 15:32:32;;;;;;;4.03;2.35;;;10.60;93.60;;;;;;4928885;29;20043;-83
2021/12/15 15:35:08;;;;;;;3.90;2.50;;;10.60;93.60;;;;;;4930715;29;20498;-83
2021/12/15 15:37:35;;;;;;;4.75;2.70;;;10.50;93.60;;;;;;4931069;29;20054;-83
2021/12/15 15:40:12;;;;;;;3.90;2.40;;;10.50;93.60;;;;;;4930404;29;20054;-83
2021/12/15 15:42:41;;;;;;;5.60;2.65;;;10.50;93.60;;;;;;4916454;29;20048;-83
2021/12/15 15:45:18;;;;;;;4.82;2.63;;;10.50;93.70;;;;;;4930767;29;20197;-82